Terminal Aerodrome Forecast
Issued by NWS Shreveport, LA

Home | Current Version | Previous Version | Text Only | Print | Product List | Glossary On
Versions: 1 2 3 4 5 6 7 8 9 10 11 12 13 14 15 16 17
000
FTUS44 KSHV 192300
TAFGGG
TAF
KGGG 192336Z 2000/2024 11005KT P6SM BKN035
     FM200100 13004KT P6SM SCT250
     FM201600 12006KT P6SM FEW050=

USA.gov is the U.S. government's official web portal to all federal, state and local government web resources and services.